createdAt,value
2019-05-23T00:00:12.159Z,987.03
2019-05-23T00:01:12.170Z,987.01
2019-05-23T00:02:12.092Z,987.02
2019-05-23T00:03:12.032Z,987.00
2019-05-23T00:04:12.056Z,986.97
2019-05-23T00:05:11.973Z,987.00
2019-05-23T00:06:11.910Z,987.00
2019-05-23T00:07:11.883Z,986.98
2019-05-23T00:08:11.835Z,986.94
2019-05-23T00:09:11.822Z,986.97
2019-05-23T00:10:11.774Z,986.97
2019-05-23T00:11:11.733Z,986.97
2019-05-23T00:12:11.681Z,986.97
2019-05-23T00:13:11.641Z,986.97
2019-05-23T00:14:11.582Z,986.98
2019-05-23T00:15:11.570Z,987.01
2019-05-23T00:16:11.526Z,987.01
2019-05-23T00:17:11.552Z,987.02
2019-05-23T00:18:11.453Z,987.00
2019-05-23T00:19:11.385Z,987.02
2019-05-23T00:20:11.372Z,987.01
2019-05-23T00:21:11.330Z,987.01
2019-05-23T00:22:11.273Z,986.99
2019-05-23T00:23:11.241Z,987.01
2019-05-23T00:24:11.199Z,987.00
2019-05-23T00:25:11.177Z,987.00
2019-05-23T00:26:11.117Z,987.00
2019-05-23T00:27:11.074Z,987.02
2019-05-23T00:28:11.033Z,986.97
2019-05-23T00:29:11.066Z,987.02
2019-05-23T00:30:10.936Z,986.97
2019-05-23T00:31:10.939Z,987.01
2019-05-23T00:32:10.878Z,986.98
2019-05-23T00:33:10.828Z,987.02
2019-05-23T00:34:10.794Z,987.01
2019-05-23T00:35:10.744Z,987.05
2019-05-23T00:36:10.733Z,987.05
2019-05-23T00:37:10.682Z,987.00
2019-05-23T00:38:10.633Z,987.03
2019-05-23T00:39:10.646Z,987.04
2019-05-23T00:40:10.543Z,986.98
2019-05-23T00:41:10.525Z,986.99
2019-05-23T00:42:10.489Z,987.01
2019-05-23T00:43:10.424Z,986.97
2019-05-23T00:44:10.459Z,987.00
2019-05-23T00:45:10.444Z,986.98
2019-05-23T00:46:10.334Z,987.01
2019-05-23T00:47:10.283Z,987.01
2019-05-23T00:48:10.237Z,986.97
2019-05-23T00:49:10.178Z,987.01
2019-05-23T00:50:10.152Z,987.00
2019-05-23T00:51:10.107Z,986.99
2019-05-23T00:52:10.055Z,986.99
2019-05-23T00:53:10.017Z,986.96
2019-05-23T00:54:09.992Z,986.99
2019-05-23T00:55:09.945Z,987.02
2019-05-23T00:56:09.907Z,986.99
2019-05-23T00:57:09.850Z,987.00
2019-05-23T00:58:09.824Z,986.99
2019-05-23T00:59:24.471Z,987.00
2019-05-23T01:00:09.743Z,987.01
2019-05-23T01:01:09.695Z,987.01
2019-05-23T01:02:09.657Z,987.01
2019-05-23T01:03:09.610Z,987.03
2019-05-23T01:04:09.602Z,986.98
2019-05-23T01:05:09.555Z,987.00
2019-05-23T01:06:09.492Z,987.01
2019-05-23T01:07:09.458Z,987.01
2019-05-23T01:08:09.417Z,986.97
2019-05-23T01:09:09.377Z,987.03
2019-05-23T01:10:09.324Z,987.03
2019-05-23T01:11:09.289Z,987.01
2019-05-23T01:12:09.251Z,987.01
2019-05-23T01:13:09.221Z,987.01
2019-05-23T01:14:09.169Z,986.98
2019-05-23T01:15:09.161Z,987.02
2019-05-23T01:16:09.088Z,986.99
2019-05-23T01:17:09.042Z,987.01
2019-05-23T01:18:09.027Z,986.98
2019-05-23T01:19:08.975Z,986.97
2019-05-23T01:20:08.928Z,986.98
2019-05-23T01:21:08.882Z,986.97
2019-05-23T01:22:08.864Z,986.96
2019-05-23T01:23:08.806Z,986.93
2019-05-23T01:24:08.795Z,986.94
2019-05-23T01:25:08.728Z,986.93
2019-05-23T01:26:08.679Z,986.89
2019-05-23T01:27:08.653Z,986.92
2019-05-23T01:28:08.614Z,986.89
2019-05-23T01:29:08.569Z,986.86
2019-05-23T01:30:08.527Z,986.89
2019-05-23T01:31:08.485Z,986.84
2019-05-23T01:32:08.454Z,986.86
2019-05-23T01:33:08.419Z,986.87
2019-05-23T01:34:08.368Z,986.90
2019-05-23T01:35:08.321Z,986.90
2019-05-23T01:36:08.290Z,986.87
2019-05-23T01:37:08.277Z,986.94
2019-05-23T01:38:08.207Z,986.91
2019-05-23T01:39:08.165Z,986.94
2019-05-23T01:40:08.153Z,986.92
2019-05-23T01:41:08.076Z,986.94
2019-05-23T01:42:08.047Z,986.93
2019-05-23T01:43:08.010Z,986.97
2019-05-23T01:44:07.967Z,986.97
2019-05-23T01:45:07.926Z,986.97
2019-05-23T01:46:07.883Z,987.02
2019-05-23T01:47:07.839Z,987.00
2019-05-23T01:48:07.814Z,987.01
2019-05-23T01:49:07.760Z,987.02
2019-05-23T01:50:07.738Z,986.98
2019-05-23T01:51:07.695Z,986.98
2019-05-23T01:52:07.645Z,986.96
2019-05-23T01:53:07.602Z,986.99
2019-05-23T01:54:07.570Z,986.97
2019-05-23T01:55:07.546Z,986.99
2019-05-23T01:56:07.481Z,986.99
2019-05-23T01:57:07.457Z,986.99
2019-05-23T01:58:07.415Z,986.98
2019-05-23T01:59:07.371Z,986.98
2019-05-23T02:00:10.509Z,987.00
2019-05-23T02:01:07.275Z,986.99
2019-05-23T02:02:07.262Z,986.95
2019-05-23T02:03:07.209Z,986.97
2019-05-23T02:04:07.169Z,987.01
2019-05-23T02:05:07.131Z,987.02
2019-05-23T02:06:07.089Z,986.99
2019-05-23T02:07:07.043Z,986.99
2019-05-23T02:08:07.012Z,986.98
2019-05-23T02:09:06.962Z,987.01
2019-05-23T02:10:06.925Z,986.95
2019-05-23T02:11:06.882Z,986.96
2019-05-23T02:12:06.849Z,986.98
2019-05-23T02:13:06.813Z,986.98
2019-05-23T02:14:06.764Z,986.96
2019-05-23T02:15:06.734Z,986.97
2019-05-23T02:16:06.703Z,986.97
2019-05-23T02:17:06.644Z,986.97
2019-05-23T02:18:06.619Z,986.97
2019-05-23T02:19:06.565Z,986.97
2019-05-23T02:20:06.533Z,986.97
2019-05-23T02:21:06.493Z,987.00
2019-05-23T02:22:06.440Z,986.96
2019-05-23T02:23:06.402Z,986.96
2019-05-23T02:24:06.373Z,987.00
2019-05-23T02:25:06.328Z,986.99
2019-05-23T02:26:06.293Z,986.98
2019-05-23T02:27:06.278Z,987.01
2019-05-23T02:28:06.201Z,986.99
2019-05-23T02:29:06.160Z,987.02
2019-05-23T02:30:06.125Z,986.99
2019-05-23T02:31:06.086Z,987.02
2019-05-23T02:32:06.067Z,987.03
2019-05-23T02:33:06.000Z,986.96
2019-05-23T02:34:05.970Z,986.97
2019-05-23T02:35:05.949Z,986.99
2019-05-23T02:36:05.900Z,987.03
2019-05-23T02:37:05.893Z,986.99
2019-05-23T02:38:05.810Z,987.00
2019-05-23T02:39:05.765Z,986.97
2019-05-23T02:40:05.725Z,986.98
2019-05-23T02:41:05.683Z,986.98
2019-05-23T02:42:05.641Z,986.99
2019-05-23T02:43:05.603Z,986.98
2019-05-23T02:44:05.568Z,986.97
2019-05-23T02:45:05.532Z,986.97
2019-05-23T02:46:05.502Z,986.98
2019-05-23T02:47:05.448Z,986.99
2019-05-23T02:48:05.401Z,986.95
2019-05-23T02:49:05.370Z,986.95
2019-05-23T02:50:05.360Z,986.97
2019-05-23T02:51:05.286Z,986.95
2019-05-23T02:52:05.238Z,986.97
2019-05-23T02:53:05.215Z,986.95
2019-05-23T02:54:05.160Z,986.93
2019-05-23T02:55:05.120Z,986.99
2019-05-23T02:56:05.086Z,986.93
2019-05-23T02:57:05.109Z,986.95
2019-05-23T02:58:05.001Z,986.99
2019-05-23T02:59:04.959Z,986.93
2019-05-23T03:00:04.927Z,986.92
2019-05-23T03:01:04.881Z,986.91
2019-05-23T03:02:04.849Z,986.92
2019-05-23T03:03:04.810Z,986.92
2019-05-23T03:04:04.783Z,986.93
2019-05-23T03:05:04.720Z,986.93
2019-05-23T03:06:04.685Z,986.92
2019-05-23T03:07:04.646Z,986.92
2019-05-23T03:08:04.596Z,986.87
2019-05-23T03:09:04.568Z,986.89
2019-05-23T03:10:04.513Z,986.87
2019-05-23T03:11:04.604Z,986.86
2019-05-23T03:12:04.434Z,986.88
2019-05-23T03:13:04.401Z,986.87
2019-05-23T03:14:04.356Z,986.84
2019-05-23T03:15:04.355Z,986.87
2019-05-23T03:16:04.295Z,986.85
2019-05-23T03:17:04.237Z,986.84
2019-05-23T03:18:04.205Z,986.88
2019-05-23T03:19:04.166Z,986.87
2019-05-23T03:20:04.130Z,986.85
2019-05-23T03:21:04.087Z,986.80
2019-05-23T03:22:04.070Z,986.80
2019-05-23T03:23:04.004Z,986.77
2019-05-23T03:24:03.970Z,986.81
2019-05-23T03:25:03.946Z,986.78
2019-05-23T03:26:03.899Z,986.81
2019-05-23T03:27:03.833Z,986.77
2019-05-23T03:28:03.809Z,986.79
2019-05-23T03:29:03.773Z,986.76
2019-05-23T03:30:03.718Z,986.76
2019-05-23T03:31:27.103Z,986.76
2019-05-23T03:32:03.667Z,986.76
2019-05-23T03:33:03.598Z,986.75
2019-05-23T03:34:03.565Z,986.75
2019-05-23T03:35:03.511Z,986.78
2019-05-23T03:36:03.493Z,986.78
2019-05-23T03:37:03.457Z,986.77
2019-05-23T03:38:03.431Z,986.73
2019-05-23T03:39:03.359Z,986.76
2019-05-23T03:40:03.366Z,986.78
2019-05-23T03:41:03.348Z,986.79
2019-05-23T03:42:03.289Z,986.77
2019-05-23T03:43:03.200Z,986.77
2019-05-23T03:44:03.175Z,986.77
2019-05-23T03:45:03.178Z,986.78
2019-05-23T03:46:03.073Z,986.74
2019-05-23T03:47:03.031Z,986.76
2019-05-23T03:48:03.042Z,986.78
2019-05-23T03:49:02.960Z,986.76
2019-05-23T03:50:02.938Z,986.78
2019-05-23T03:51:02.869Z,986.74
2019-05-23T03:52:02.830Z,986.77
2019-05-23T03:53:02.786Z,986.71
2019-05-23T03:54:02.777Z,986.75
2019-05-23T03:55:02.713Z,986.75
2019-05-23T03:56:02.675Z,986.74
2019-05-23T03:57:02.633Z,986.73
2019-05-23T03:58:02.589Z,986.71
2019-05-23T03:59:02.566Z,986.72
2019-05-23T04:00:02.505Z,986.70
2019-05-23T04:01:02.477Z,986.72
2019-05-23T04:02:02.429Z,986.67
2019-05-23T04:03:02.406Z,986.64
2019-05-23T04:04:02.484Z,986.68
2019-05-23T04:05:02.339Z,986.64
2019-05-23T04:06:02.385Z,986.69
2019-05-23T04:07:02.303Z,986.70
2019-05-23T04:08:02.194Z,986.66
2019-05-23T04:09:02.151Z,986.66
2019-05-23T04:10:02.119Z,986.65
2019-05-23T04:11:02.084Z,986.66
2019-05-23T04:12:02.063Z,986.64
2019-05-23T04:13:01.985Z,986.63
2019-05-23T04:14:01.952Z,986.66
2019-05-23T04:15:01.920Z,986.66
2019-05-23T04:16:01.878Z,986.67
2019-05-23T04:17:01.832Z,986.64
2019-05-23T04:18:01.824Z,986.68
2019-05-23T04:19:01.762Z,986.62
2019-05-23T04:20:01.709Z,986.62
2019-05-23T04:21:01.700Z,986.63
2019-05-23T04:22:01.728Z,986.65
2019-05-23T04:23:01.586Z,986.58
2019-05-23T04:24:01.555Z,986.61
2019-05-23T04:25:02.366Z,986.60
2019-05-23T04:26:01.481Z,986.58
2019-05-23T04:27:01.478Z,986.62
2019-05-23T04:28:01.408Z,986.62
2019-05-23T04:29:01.350Z,986.67
2019-05-23T04:30:01.363Z,986.66
2019-05-23T04:31:01.281Z,986.69
2019-05-23T04:32:08.059Z,986.66
2019-05-23T04:33:01.204Z,986.67
2019-05-23T04:34:01.176Z,986.65
2019-05-23T04:35:01.125Z,986.65
2019-05-23T04:36:01.090Z,986.69
2019-05-23T04:37:01.039Z,986.68
2019-05-23T04:38:01.007Z,986.70
2019-05-23T04:39:00.963Z,986.70
2019-05-23T04:40:00.918Z,986.71
2019-05-23T04:41:00.882Z,986.68
2019-05-23T04:42:00.898Z,986.69
2019-05-23T04:43:00.807Z,986.73
2019-05-23T04:44:00.775Z,986.74
2019-05-23T04:45:00.743Z,986.74
2019-05-23T04:46:00.692Z,986.74
2019-05-23T04:47:00.664Z,986.76
2019-05-23T04:48:00.617Z,986.72
2019-05-23T04:49:00.576Z,986.79
2019-05-23T04:50:00.557Z,986.80
2019-05-23T04:51:00.758Z,986.76
2019-05-23T04:52:00.598Z,986.82
2019-05-23T04:53:00.484Z,986.80
2019-05-23T04:54:00.441Z,986.82
2019-05-23T04:55:00.405Z,986.80
2019-05-23T04:56:00.317Z,986.85
2019-05-23T04:57:00.275Z,986.85
2019-05-23T04:58:03.887Z,986.86
2019-05-23T04:59:00.242Z,986.82
2019-05-23T05:00:00.176Z,986.76
2019-05-23T05:01:00.135Z,986.82
2019-05-23T05:02:00.101Z,986.80
2019-05-23T05:03:00.062Z,986.77
2019-05-23T05:04:00.031Z,986.79
2019-05-23T05:05:00.008Z,986.80
2019-05-23T05:05:59.957Z,986.82
2019-05-23T05:06:59.924Z,986.79
2019-05-23T05:07:59.886Z,986.84
2019-05-23T05:08:59.848Z,986.81
2019-05-23T05:09:59.821Z,986.84
2019-05-23T05:10:59.787Z,986.86
2019-05-23T05:11:59.744Z,986.87
2019-05-23T05:12:59.706Z,986.90
2019-05-23T05:13:59.671Z,986.92
2019-05-23T05:14:59.643Z,986.93
2019-05-23T05:15:59.625Z,986.90
2019-05-23T05:16:59.582Z,986.91
2019-05-23T05:17:59.541Z,986.90
2019-05-23T05:18:59.510Z,986.90
2019-05-23T05:19:59.474Z,986.92
2019-05-23T05:20:59.447Z,986.94
2019-05-23T05:21:59.415Z,986.91
2019-05-23T05:22:59.392Z,986.93
2019-05-23T05:23:59.430Z,987.01
2019-05-23T05:24:59.326Z,986.96
2019-05-23T05:25:59.301Z,986.97
2019-05-23T05:26:59.249Z,986.98
2019-05-23T05:27:59.242Z,986.97
2019-05-23T05:28:59.207Z,986.93
2019-05-23T05:29:59.182Z,986.94
2019-05-23T05:30:59.169Z,986.94
2019-05-23T05:32:03.394Z,986.96
2019-05-23T05:32:59.087Z,986.96
2019-05-23T05:33:59.055Z,986.96
2019-05-23T05:34:59.114Z,986.93
2019-05-23T05:35:59.009Z,986.91
2019-05-23T05:36:58.945Z,986.93
2019-05-23T05:37:58.916Z,986.95
2019-05-23T05:38:58.907Z,986.97
2019-05-23T05:39:58.887Z,986.97
2019-05-23T05:40:58.830Z,986.97
2019-05-23T05:41:58.830Z,987.00
2019-05-23T05:42:58.771Z,986.96
2019-05-23T05:43:58.727Z,986.98
2019-05-23T05:44:58.691Z,987.00
2019-05-23T05:45:58.671Z,986.97
2019-05-23T05:46:58.622Z,986.97
2019-05-23T05:47:58.588Z,987.01
2019-05-23T05:48:58.556Z,986.98
2019-05-23T05:49:58.539Z,986.98
2019-05-23T05:50:58.508Z,986.99
2019-05-23T05:51:58.465Z,987.00
2019-05-23T05:52:58.447Z,987.03
2019-05-23T05:53:58.437Z,987.04
2019-05-23T05:55:00.927Z,987.05
2019-05-23T05:55:58.415Z,987.07
2019-05-23T05:56:58.302Z,987.06
2019-05-23T05:57:58.275Z,987.03
2019-05-23T05:58:58.250Z,987.09
2019-05-23T05:59:58.193Z,987.09
2019-05-23T06:00:58.180Z,987.09
2019-05-23T06:01:58.136Z,987.05
2019-05-23T06:03:04.689Z,987.05
2019-05-23T06:03:58.072Z,987.06
2019-05-23T06:04:58.044Z,987.06
2019-05-23T06:05:57.997Z,987.06
2019-05-23T06:06:57.959Z,987.07
2019-05-23T06:07:57.926Z,987.06
2019-05-23T06:08:57.937Z,987.09
2019-05-23T06:09:57.890Z,987.08
2019-05-23T06:10:57.843Z,987.10
2019-05-23T06:11:57.789Z,987.10
2019-05-23T06:12:57.758Z,987.09
2019-05-23T06:13:57.722Z,987.08
2019-05-23T06:14:57.705Z,987.10
2019-05-23T06:15:57.656Z,987.07
2019-05-23T06:16:57.632Z,987.07
2019-05-23T06:17:57.587Z,987.10
2019-05-23T06:18:57.557Z,987.07
2019-05-23T06:19:57.540Z,987.10
2019-05-23T06:20:57.546Z,987.08
2019-05-23T06:21:57.456Z,987.10
2019-05-23T06:22:57.457Z,987.11
2019-05-23T06:23:57.392Z,987.10
2019-05-23T06:24:58.220Z,987.08
2019-05-23T06:25:57.318Z,987.07
2019-05-23T06:26:57.298Z,987.07
2019-05-23T06:27:57.256Z,987.00
2019-05-23T06:28:57.219Z,987.05
2019-05-23T06:29:57.211Z,987.07
2019-05-23T06:30:57.170Z,987.04
2019-05-23T06:31:57.115Z,987.05
2019-05-23T06:32:57.090Z,987.07
2019-05-23T06:33:57.084Z,987.08
2019-05-23T06:34:57.021Z,987.07
2019-05-23T06:35:56.987Z,987.08
2019-05-23T06:36:56.953Z,987.09
2019-05-23T06:37:57.011Z,987.10
2019-05-23T06:38:56.887Z,987.10
2019-05-23T06:39:56.880Z,987.07
2019-05-23T06:40:56.863Z,987.07
2019-05-23T06:41:56.795Z,987.06
2019-05-23T06:42:56.752Z,987.06
2019-05-23T06:43:56.731Z,987.07
2019-05-23T06:44:56.682Z,987.08
2019-05-23T06:45:56.666Z,987.08
2019-05-23T06:46:56.628Z,987.10
2019-05-23T06:47:56.602Z,987.10
2019-05-23T06:48:56.566Z,987.07
2019-05-23T06:49:56.530Z,987.08
2019-05-23T06:50:56.496Z,987.08
2019-05-23T06:51:56.465Z,987.09
2019-05-23T06:52:56.416Z,987.08
2019-05-23T06:53:56.404Z,987.11
2019-05-23T06:54:59.624Z,987.13
2019-05-23T06:55:56.325Z,987.16
2019-05-23T06:56:56.312Z,987.08
2019-05-23T06:57:56.264Z,987.14
2019-05-23T06:58:56.283Z,987.18
2019-05-23T06:59:56.323Z,987.14
2019-05-23T07:00:56.206Z,987.16
2019-05-23T07:01:56.145Z,987.17
2019-05-23T07:02:56.102Z,987.18
2019-05-23T07:03:56.085Z,987.18
2019-05-23T07:04:56.046Z,987.15
2019-05-23T07:05:56.023Z,987.22
2019-05-23T07:06:56.011Z,987.22
2019-05-23T07:07:55.998Z,987.23
2019-05-23T07:08:55.956Z,987.20
2019-05-23T07:09:56.045Z,987.22
2019-05-23T07:10:55.897Z,987.26
2019-05-23T07:11:55.845Z,987.24
2019-05-23T07:12:55.817Z,987.21
2019-05-23T07:13:55.787Z,987.24
2019-05-23T07:14:55.766Z,987.28
2019-05-23T07:15:55.772Z,987.23
2019-05-23T07:16:55.733Z,987.28
2019-05-23T07:17:55.718Z,987.31
2019-05-23T07:18:55.655Z,987.31
2019-05-23T07:19:55.610Z,987.35
2019-05-23T07:20:55.590Z,987.33
2019-05-23T07:21:55.582Z,987.35
2019-05-23T07:22:55.568Z,987.34
2019-05-23T07:23:55.534Z,987.35
2019-05-23T07:24:58.721Z,987.34
2019-05-23T07:25:55.510Z,987.36
2019-05-23T07:26:55.450Z,987.35
2019-05-23T07:27:55.415Z,987.35
2019-05-23T07:28:55.404Z,987.33
2019-05-23T07:29:55.382Z,987.36
2019-05-23T07:30:55.379Z,987.44
2019-05-23T07:31:55.354Z,987.36
2019-05-23T07:32:55.306Z,987.39
2019-05-23T07:34:01.935Z,987.36
2019-05-23T07:34:55.262Z,987.38
2019-05-23T07:35:55.230Z,987.36
2019-05-23T07:36:55.197Z,987.37
2019-05-23T07:37:55.181Z,987.36
2019-05-23T07:38:55.168Z,987.37
2019-05-23T07:39:55.134Z,987.36
2019-05-23T07:40:55.091Z,987.31
2019-05-23T07:41:55.080Z,987.40
2019-05-23T07:42:55.050Z,987.42
2019-05-23T07:43:55.093Z,987.42
2019-05-23T07:44:54.990Z,987.41
2019-05-23T07:45:54.986Z,987.35
2019-05-23T07:46:54.949Z,987.32
2019-05-23T07:47:54.918Z,987.37
2019-05-23T07:48:54.914Z,987.38
2019-05-23T07:49:54.908Z,987.37
2019-05-23T07:50:54.909Z,987.32
2019-05-23T07:51:54.835Z,987.39
2019-05-23T07:52:54.825Z,987.38
2019-05-23T07:53:54.819Z,987.38
2019-05-23T07:54:54.923Z,987.34
2019-05-23T07:55:54.763Z,987.38
2019-05-23T07:56:54.766Z,987.37
2019-05-23T07:57:54.697Z,987.35
2019-05-23T07:58:54.708Z,987.37
2019-05-23T07:59:54.682Z,987.34
2019-05-23T08:00:54.826Z,987.37
2019-05-23T08:01:54.640Z,987.37
2019-05-23T08:02:54.591Z,987.44
2019-05-23T08:03:54.548Z,987.44
2019-05-23T08:04:54.523Z,987.41
2019-05-23T08:05:54.499Z,987.43
2019-05-23T08:06:54.465Z,987.38
2019-05-23T08:07:54.541Z,987.37
2019-05-23T08:08:54.423Z,987.34
2019-05-23T08:09:54.403Z,987.32
2019-05-23T08:10:54.572Z,987.28
2019-05-23T08:11:54.375Z,987.34
2019-05-23T08:12:54.346Z,987.27
2019-05-23T08:13:54.302Z,987.28
2019-05-23T08:14:54.348Z,987.31
2019-05-23T08:15:54.261Z,987.28
2019-05-23T08:16:54.253Z,987.28
2019-05-23T08:17:54.274Z,987.30
2019-05-23T08:18:54.185Z,987.29
2019-05-23T08:19:54.158Z,987.30
2019-05-23T08:20:54.149Z,987.30
2019-05-23T08:21:54.127Z,987.27
2019-05-23T08:22:54.101Z,987.27
2019-05-23T08:23:54.147Z,987.26
2019-05-23T08:24:54.074Z,987.27
2019-05-23T08:25:54.031Z,987.22
2019-05-23T08:26:54.020Z,987.28
2019-05-23T08:27:54.042Z,987.25
2019-05-23T08:29:23.773Z,987.22
2019-05-23T08:29:53.957Z,987.28
2019-05-23T08:30:53.917Z,987.23
2019-05-23T08:31:53.889Z,987.31
2019-05-23T08:32:53.862Z,987.29
2019-05-23T08:33:53.814Z,987.31
2019-05-23T08:34:53.830Z,987.26
2019-05-23T08:35:53.780Z,987.33
2019-05-23T08:36:53.768Z,987.25
2019-05-23T08:37:53.764Z,987.25
2019-05-23T08:38:53.736Z,987.22
2019-05-23T08:39:53.705Z,987.20
2019-05-23T08:40:53.689Z,987.24
2019-05-23T08:41:53.686Z,987.22
2019-05-23T08:42:53.620Z,987.33
2019-05-23T08:43:53.585Z,987.21
2019-05-23T08:44:53.585Z,987.29
2019-05-23T08:45:53.559Z,987.26
2019-05-23T08:46:53.534Z,987.32
2019-05-23T08:47:53.532Z,987.32
2019-05-23T08:48:53.479Z,987.33
2019-05-23T08:49:53.498Z,987.27
2019-05-23T08:50:53.448Z,987.26
2019-05-23T08:51:53.438Z,987.31
2019-05-23T08:52:53.423Z,987.23
2019-05-23T08:53:53.382Z,987.29
2019-05-23T08:54:53.389Z,987.25
2019-05-23T08:55:53.352Z,987.24
2019-05-23T08:56:53.293Z,987.28
2019-05-23T08:57:53.272Z,987.27
2019-05-23T08:58:53.235Z,987.18
2019-05-23T08:59:53.243Z,987.18
2019-05-23T09:00:53.219Z,987.16
2019-05-23T09:01:53.191Z,987.19
2019-05-23T09:02:53.148Z,987.15
2019-05-23T09:03:53.138Z,987.23
2019-05-23T09:05:04.437Z,987.16
2019-05-23T09:05:53.101Z,987.13
2019-05-23T09:06:53.073Z,987.13
2019-05-23T09:07:53.062Z,987.17
2019-05-23T09:08:53.014Z,987.05
2019-05-23T09:09:53.073Z,987.11
2019-05-23T09:10:52.971Z,987.12
2019-05-23T09:11:52.950Z,987.11
2019-05-23T09:12:52.929Z,987.14
2019-05-23T09:13:52.904Z,987.15
2019-05-23T09:14:52.950Z,987.10
2019-05-23T09:15:53.649Z,987.11
2019-05-23T09:16:52.872Z,987.09
2019-05-23T09:17:54.272Z,987.24
2019-05-23T09:18:52.793Z,987.21
2019-05-23T09:19:52.813Z,987.13
2019-05-23T09:20:52.788Z,987.22
2019-05-23T09:21:57.545Z,987.16
2019-05-23T09:22:52.681Z,987.13
2019-05-23T09:23:52.711Z,987.17
2019-05-23T09:24:52.660Z,987.20
2019-05-23T09:25:52.632Z,987.16
2019-05-23T09:26:52.597Z,987.20
2019-05-23T09:27:52.567Z,987.20
2019-05-23T09:28:52.555Z,987.16
2019-05-23T09:29:52.523Z,987.13
2019-05-23T09:30:52.526Z,987.14
2019-05-23T09:31:52.556Z,987.19
2019-05-23T09:32:52.455Z,987.23
2019-05-23T09:33:52.456Z,987.08
2019-05-23T09:34:52.406Z,987.16
2019-05-23T09:35:52.392Z,987.13
2019-05-23T09:36:52.400Z,987.15
2019-05-23T09:37:52.348Z,987.16
2019-05-23T09:38:52.402Z,987.13
2019-05-23T09:39:52.295Z,987.12
2019-05-23T09:40:52.285Z,987.07
2019-05-23T09:41:52.235Z,987.05
2019-05-23T09:42:52.259Z,987.07
2019-05-23T09:43:52.256Z,987.10
2019-05-23T09:44:52.171Z,987.12
2019-05-23T09:45:52.144Z,987.13
2019-05-23T09:46:52.127Z,987.13
2019-05-23T09:47:52.110Z,987.14
2019-05-23T09:48:52.168Z,987.09
2019-05-23T09:49:55.106Z,987.15
2019-05-23T09:50:52.078Z,987.13
2019-05-23T09:51:55.725Z,987.12
2019-05-23T09:52:52.079Z,987.09
2019-05-23T09:53:52.011Z,987.08
2019-05-23T09:54:51.933Z,987.06
2019-05-23T09:55:51.898Z,987.07
2019-05-23T09:56:51.930Z,987.06
2019-05-23T09:57:51.842Z,987.15
2019-05-23T09:58:51.843Z,987.10
2019-05-23T09:59:51.849Z,987.10
2019-05-23T10:00:51.796Z,987.13
2019-05-23T10:01:51.780Z,987.06
2019-05-23T10:02:51.727Z,987.06
2019-05-23T10:03:51.822Z,987.05
2019-05-23T10:04:51.708Z,987.02
2019-05-23T10:05:51.839Z,987.03
2019-05-23T10:06:51.683Z,987.07
2019-05-23T10:07:51.604Z,987.05
2019-05-23T10:08:51.591Z,986.97
2019-05-23T10:09:51.627Z,986.98
2019-05-23T10:10:51.657Z,986.97
2019-05-23T10:11:51.560Z,987.01
2019-05-23T10:12:51.538Z,987.04
2019-05-23T10:13:51.617Z,986.96
2019-05-23T10:14:51.472Z,987.00
2019-05-23T10:15:51.445Z,987.01
2019-05-23T10:16:51.466Z,987.05
2019-05-23T10:17:51.398Z,987.05
2019-05-23T10:18:51.381Z,986.99
2019-05-23T10:19:51.338Z,986.97
2019-05-23T10:20:51.368Z,987.00
2019-05-23T10:21:51.291Z,986.98
2019-05-23T10:22:51.253Z,986.93
2019-05-23T10:23:51.231Z,986.95
2019-05-23T10:24:51.204Z,986.93
2019-05-23T10:25:51.230Z,986.93
2019-05-23T10:26:51.211Z,986.99
2019-05-23T10:27:51.146Z,987.02
2019-05-23T10:28:51.127Z,987.03
2019-05-23T10:29:51.131Z,987.05
2019-05-23T10:30:51.086Z,987.03
2019-05-23T10:31:51.032Z,987.04
2019-05-23T10:32:51.090Z,987.02
2019-05-23T10:33:51.059Z,987.03
2019-05-23T10:34:50.974Z,986.95
2019-05-23T10:36:00.620Z,986.94
2019-05-23T10:36:50.953Z,986.94
2019-05-23T10:37:50.895Z,986.85
2019-05-23T10:38:50.872Z,986.97
2019-05-23T10:39:51.370Z,986.94
2019-05-23T10:40:50.865Z,986.92
2019-05-23T10:41:50.831Z,986.91
2019-05-23T10:42:50.782Z,986.87
2019-05-23T10:43:50.807Z,986.85
2019-05-23T10:44:50.748Z,986.81
2019-05-23T10:45:50.695Z,986.88
2019-05-23T10:46:50.675Z,986.88
2019-05-23T10:47:50.642Z,986.84
2019-05-23T10:48:50.625Z,986.93
2019-05-23T10:49:50.671Z,986.87
2019-05-23T10:50:50.586Z,986.88
2019-05-23T10:51:50.653Z,986.86
2019-05-23T10:52:50.521Z,986.86
2019-05-23T10:53:50.517Z,986.78
2019-05-23T10:54:50.547Z,986.79
2019-05-23T10:55:50.457Z,986.80
2019-05-23T10:56:50.470Z,986.78
2019-05-23T10:57:50.419Z,986.77
2019-05-23T10:58:50.401Z,986.70
2019-05-23T10:59:50.359Z,986.72
2019-05-23T11:00:50.313Z,986.75
2019-05-23T11:01:50.312Z,986.75
2019-05-23T11:02:50.303Z,986.72
2019-05-23T11:03:50.257Z,986.72
2019-05-23T11:04:50.239Z,986.70
2019-05-23T11:05:50.217Z,986.76
2019-05-23T11:06:50.197Z,986.78
2019-05-23T11:07:50.160Z,986.79
2019-05-23T11:08:50.222Z,986.79
2019-05-23T11:09:50.139Z,986.83
2019-05-23T11:10:50.099Z,986.84
2019-05-23T11:11:50.052Z,986.86
2019-05-23T11:12:50.092Z,986.81
2019-05-23T11:13:50.010Z,986.81
2019-05-23T11:14:49.991Z,986.75
2019-05-23T11:15:49.977Z,986.79
2019-05-23T11:16:49.953Z,986.77
2019-05-23T11:17:53.458Z,986.67
2019-05-23T11:18:49.917Z,986.74
2019-05-23T11:19:49.907Z,986.70
2019-05-23T11:20:49.823Z,986.70
2019-05-23T11:21:49.814Z,986.73
2019-05-23T11:22:49.781Z,986.68
2019-05-23T11:23:49.776Z,986.70
2019-05-23T11:24:49.761Z,986.59
2019-05-23T11:25:49.720Z,986.60
2019-05-23T11:26:49.683Z,986.61
2019-05-23T11:27:49.728Z,986.58
2019-05-23T11:28:49.658Z,986.57
2019-05-23T11:29:49.611Z,986.52
2019-05-23T11:30:49.589Z,986.54
2019-05-23T11:31:49.561Z,986.54
2019-05-23T11:32:49.566Z,986.57
2019-05-23T11:33:49.528Z,986.58
2019-05-23T11:34:49.514Z,986.56
2019-05-23T11:35:49.467Z,986.57
2019-05-23T11:36:49.458Z,986.61
2019-05-23T11:37:49.423Z,986.57
2019-05-23T11:38:49.382Z,986.53
2019-05-23T11:39:50.699Z,986.53
2019-05-23T11:40:49.370Z,986.50
2019-05-23T11:41:49.355Z,986.54
2019-05-23T11:42:52.525Z,986.57
2019-05-23T11:43:49.265Z,986.50
2019-05-23T11:44:49.256Z,986.52
2019-05-23T11:45:49.219Z,986.51
2019-05-23T11:46:49.206Z,986.43
2019-05-23T11:47:49.248Z,986.44
2019-05-23T11:48:49.198Z,986.52
2019-05-23T11:49:49.142Z,986.48
2019-05-23T11:50:49.160Z,986.47
2019-05-23T11:51:49.140Z,986.56
2019-05-23T11:52:49.099Z,986.48
2019-05-23T11:54:05.958Z,986.46
2019-05-23T11:54:49.184Z,986.49
2019-05-23T11:55:54.031Z,986.41
2019-05-23T11:56:49.542Z,986.43
2019-05-23T11:57:49.030Z,986.38
2019-05-23T11:58:49.024Z,986.36
2019-05-23T11:59:49.888Z,986.35
2019-05-23T12:00:48.923Z,986.34
2019-05-23T12:01:48.956Z,986.30
2019-05-23T12:02:48.839Z,986.28
2019-05-23T12:03:48.800Z,986.29
2019-05-23T12:04:48.779Z,986.32
2019-05-23T12:05:48.747Z,986.28
2019-05-23T12:06:55.528Z,986.29
2019-05-23T12:07:48.852Z,986.28
2019-05-23T12:08:48.725Z,986.28
2019-05-23T12:09:48.633Z,986.24
2019-05-23T12:10:48.725Z,986.27
2019-05-23T12:11:48.626Z,986.24
2019-05-23T12:12:49.402Z,986.25
2019-05-23T12:13:48.549Z,986.32
2019-05-23T12:14:48.527Z,986.33
2019-05-23T12:15:48.497Z,986.28
2019-05-23T12:16:48.496Z,986.28
2019-05-23T12:17:48.872Z,986.31
2019-05-23T12:18:48.446Z,986.27
2019-05-23T12:19:48.405Z,986.28
2019-05-23T12:20:48.427Z,986.32
2019-05-23T12:21:48.391Z,986.32
2019-05-23T12:22:48.351Z,986.27
2019-05-23T12:23:48.334Z,986.31
2019-05-23T12:24:48.284Z,986.26
2019-05-23T12:25:48.272Z,986.19
2019-05-23T12:26:48.250Z,986.16
2019-05-23T12:27:48.326Z,986.24